Saint-Tropez, France
Current Conditions -  °F | °C
As of 6:30 PM on Monday 24 Nov 2014 (Local Time) from LFMD Reporting Station
Overcast Overcast  
Wind Chill: 64°   Ceiling: 3500
Heat Index: 64°   Visibility: 6mi
Dew Point: 57°   Wind: 2mph
Humidity: 77%   Direction: NA
Pressure: 30.15"   Gusts: NA
Location:  43.27°N, 6.64°E
Report Text: LFMD 241730Z AUTO VRB02KT 9999 BKN035 OVC110 18/14 Q1021
Loading
Personal Weather Stations






























Interactive Weather Map New forecast layout! Learn more

10-Day Weather Forecast

Advertisements
Track Severe Weather on mobile